sensor_id;sensor_type;location;lat;lon;timestamp;temperature;humidity
78793;SHT31;68134;51.984;5.652;2023-04-03T00:01:56;6.4;57.8
78793;SHT31;68134;51.984;5.652;2023-04-03T00:04:26;6.3;57.8
78793;SHT31;68134;51.984;5.652;2023-04-03T00:06:56;6.3;58.0
78793;SHT31;68134;51.984;5.652;2023-04-03T00:09:26;6.3;57.8
78793;SHT31;68134;51.984;5.652;2023-04-03T00:11:55;6.2;58.1
78793;SHT31;68134;51.984;5.652;2023-04-03T00:14:25;6.2;57.9
78793;SHT31;68134;51.984;5.652;2023-04-03T00:16:55;6.2;57.8
78793;SHT31;68134;51.984;5.652;2023-04-03T00:19:25;6.1;58.0
78793;SHT31;68134;51.984;5.652;2023-04-03T00:21:54;6.1;58.0
78793;SHT31;68134;51.984;5.652;2023-04-03T00:24:24;6.1;57.8
78793;SHT31;68134;51.984;5.652;2023-04-03T00:26:56;6.1;58.0
78793;SHT31;68134;51.984;5.652;2023-04-03T00:29:26;6.0;58.1
78793;SHT31;68134;51.984;5.652;2023-04-03T00:31:55;6.0;57.9
78793;SHT31;68134;51.984;5.652;2023-04-03T00:34:25;6.0;58.3
78793;SHT31;68134;51.984;5.652;2023-04-03T00:36:55;6.0;58.3
78793;SHT31;68134;51.984;5.652;2023-04-03T00:39:24;5.9;58.4
78793;SHT31;68134;51.984;5.652;2023-04-03T00:41:54;5.9;58.5
78793;SHT31;68134;51.984;5.652;2023-04-03T00:45:25;5.9;58.4
78793;SHT31;68134;51.984;5.652;2023-04-03T00:47:56;5.9;58.5
78793;SHT31;68134;51.984;5.652;2023-04-03T00:50:28;5.8;58.3
78793;SHT31;68134;51.984;5.652;2023-04-03T00:52:59;5.8;58.3
78793;SHT31;68134;51.984;5.652;2023-04-03T00:55:29;5.8;58.7
78793;SHT31;68134;51.984;5.652;2023-04-03T00:58:00;5.8;58.8
78793;SHT31;68134;51.984;5.652;2023-04-03T01:00:31;5.7;58.7
78793;SHT31;68134;51.984;5.652;2023-04-03T01:03:01;5.7;58.9
78793;SHT31;68134;51.984;5.652;2023-04-03T01:05:31;5.7;58.7
78793;SHT31;68134;51.984;5.652;2023-04-03T01:08:01;5.7;59.0
78793;SHT31;68134;51.984;5.652;2023-04-03T01:10:34;5.7;58.6
78793;SHT31;68134;51.984;5.652;2023-04-03T01:13:19;5.6;58.8
78793;SHT31;68134;51.984;5.652;2023-04-03T01:15:49;5.6;58.8
78793;SHT31;68134;51.984;5.652;2023-04-03T01:18:19;5.6;59.2
78793;SHT31;68134;51.984;5.652;2023-04-03T01:21:45;5.6;59.0
78793;SHT31;68134;51.984;5.652;2023-04-03T01:24:31;5.6;59.5
78793;SHT31;68134;51.984;5.652;2023-04-03T01:27:05;5.5;59.6
78793;SHT31;68134;51.984;5.652;2023-04-03T01:29:35;5.5;59.3
78793;SHT31;68134;51.984;5.652;2023-04-03T01:32:06;5.5;59.7
78793;SHT31;68134;51.984;5.652;2023-04-03T01:34:36;5.5;59.7
78793;SHT31;68134;51.984;5.652;2023-04-03T01:37:06;5.4;60.0
78793;SHT31;68134;51.984;5.652;2023-04-03T01:39:35;5.4;59.9
78793;SHT31;68134;51.984;5.652;2023-04-03T01:42:05;5.4;60.3
78793;SHT31;68134;51.984;5.652;2023-04-03T01:44:35;5.4;60.4
78793;SHT31;68134;51.984;5.652;2023-04-03T01:47:07;5.3;60.2
78793;SHT31;68134;51.984;5.652;2023-04-03T01:49:37;5.3;60.2
78793;SHT31;68134;51.984;5.652;2023-04-03T01:52:06;5.3;60.4
78793;SHT31;68134;51.984;5.652;2023-04-03T01:54:36;5.3;60.4
78793;SHT31;68134;51.984;5.652;2023-04-03T01:57:06;5.2;60.9
78793;SHT31;68134;51.984;5.652;2023-04-03T01:59:36;5.2;60.9
78793;SHT31;68134;51.984;5.652;2023-04-03T02:02:06;5.2;61.1
78793;SHT31;68134;51.984;5.652;2023-04-03T02:04:36;5.2;61.0
78793;SHT31;68134;51.984;5.652;2023-04-03T02:07:05;5.2;61.6
78793;SHT31;68134;51.984;5.652;2023-04-03T02:09:35;5.1;61.4
78793;SHT31;68134;51.984;5.652;2023-04-03T02:12:05;5.1;61.6
78793;SHT31;68134;51.984;5.652;2023-04-03T02:14:37;5.1;61.5
78793;SHT31;68134;51.984;5.652;2023-04-03T02:17:09;5.1;62.2
78793;SHT31;68134;51.984;5.652;2023-04-03T02:19:38;5.0;62.2
78793;SHT31;68134;51.984;5.652;2023-04-03T02:22:08;5.0;62.2
78793;SHT31;68134;51.984;5.652;2023-04-03T02:24:38;5.0;62.2
78793;SHT31;68134;51.984;5.652;2023-04-03T02:27:10;5.0;62.3
78793;SHT31;68134;51.984;5.652;2023-04-03T02:29:40;5.0;62.7
78793;SHT31;68134;51.984;5.652;2023-04-03T02:32:10;5.0;63.2
78793;SHT31;68134;51.984;5.652;2023-04-03T02:34:39;5.0;62.8
78793;SHT31;68134;51.984;5.652;2023-04-03T02:37:09;4.9;63.4
78793;SHT31;68134;51.984;5.652;2023-04-03T02:39:40;4.9;63.2
78793;SHT31;68134;51.984;5.652;2023-04-03T02:42:10;4.9;63.4
78793;SHT31;68134;51.984;5.652;2023-04-03T02:44:40;4.9;63.5
78793;SHT31;68134;51.984;5.652;2023-04-03T02:47:09;4.9;63.6
78793;SHT31;68134;51.984;5.652;2023-04-03T02:49:39;4.9;63.4
78793;SHT31;68134;51.984;5.652;2023-04-03T02:52:11;4.9;63.5
78793;SHT31;68134;51.984;5.652;2023-04-03T02:54:41;4.9;63.4
78793;SHT31;68134;51.984;5.652;2023-04-03T02:57:11;4.8;63.7
78793;SHT31;68134;51.984;5.652;2023-04-03T02:59:41;4.8;63.7
78793;SHT31;68134;51.984;5.652;2023-04-03T03:02:11;4.8;63.8
78793;SHT31;68134;51.984;5.652;2023-04-03T03:04:41;4.8;63.8
78793;SHT31;68134;51.984;5.652;2023-04-03T03:07:13;4.8;64.1
78793;SHT31;68134;51.984;5.652;2023-04-03T03:09:42;4.8;63.9
78793;SHT31;68134;51.984;5.652;2023-04-03T03:12:12;4.8;64.4
78793;SHT31;68134;51.984;5.652;2023-04-03T03:14:42;4.7;64.3
78793;SHT31;68134;51.984;5.652;2023-04-03T03:17:11;4.7;64.4
78793;SHT31;68134;51.984;5.652;2023-04-03T03:19:42;4.7;64.2
78793;SHT31;68134;51.984;5.652;2023-04-03T03:22:13;4.7;64.5
78793;SHT31;68134;51.984;5.652;2023-04-03T03:24:42;4.7;64.4
78793;SHT31;68134;51.984;5.652;2023-04-03T03:27:12;4.7;64.7
78793;SHT31;68134;51.984;5.652;2023-04-03T03:29:43;4.6;64.8
78793;SHT31;68134;51.984;5.652;2023-04-03T03:32:13;4.6;64.8
78793;SHT31;68134;51.984;5.652;2023-04-03T03:34:44;4.6;64.9
78793;SHT31;68134;51.984;5.652;2023-04-03T03:37:14;4.6;64.9
78793;SHT31;68134;51.984;5.652;2023-04-03T03:39:44;4.6;64.9
78793;SHT31;68134;51.984;5.652;2023-04-03T03:42:13;4.5;65.4
78793;SHT31;68134;51.984;5.652;2023-04-03T03:44:43;4.5;65.1
78793;SHT31;68134;51.984;5.652;2023-04-03T03:47:13;4.5;65.1
78793;SHT31;68134;51.984;5.652;2023-04-03T03:49:43;4.5;65.3
78793;SHT31;68134;51.984;5.652;2023-04-03T03:52:12;4.5;65.4
78793;SHT31;68134;51.984;5.652;2023-04-03T03:54:42;4.5;65.2
78793;SHT31;68134;51.984;5.652;2023-04-03T03:57:12;4.5;65.2
78793;SHT31;68134;51.984;5.652;2023-04-03T03:59:43;4.4;65.5
78793;SHT31;68134;51.984;5.652;2023-04-03T04:02:12;4.4;65.5
78793;SHT31;68134;51.984;5.652;2023-04-03T04:04:43;4.4;65.7
78793;SHT31;68134;51.984;5.652;2023-04-03T04:07:13;4.4;65.8
78793;SHT31;68134;51.984;5.652;2023-04-03T04:09:43;4.4;66.0
78793;SHT31;68134;51.984;5.652;2023-04-03T04:12:12;4.4;65.8
78793;SHT31;68134;51.984;5.652;2023-04-03T04:14:43;4.3;65.9
78793;SHT31;68134;51.984;5.652;2023-04-03T04:17:14;4.3;65.7
78793;SHT31;68134;51.984;5.652;2023-04-03T04:19:43;4.3;66.0
78793;SHT31;68134;51.984;5.652;2023-04-03T04:22:13;4.3;66.0
78793;SHT31;68134;51.984;5.652;2023-04-03T04:24:43;4.2;66.1
78793;SHT31;68134;51.984;5.652;2023-04-03T04:27:12;4.2;66.2
78793;SHT31;68134;51.984;5.652;2023-04-03T04:29:43;4.2;66.2
78793;SHT31;68134;51.984;5.652;2023-04-03T04:32:14;4.2;66.3
78793;SHT31;68134;51.984;5.652;2023-04-03T04:34:44;4.1;66.3
78793;SHT31;68134;51.984;5.652;2023-04-03T04:37:14;4.1;66.7
78793;SHT31;68134;51.984;5.652;2023-04-03T04:39:43;4.1;66.6
78793;SHT31;68134;51.984;5.652;2023-04-03T04:42:13;4.1;66.5
78793;SHT31;68134;51.984;5.652;2023-04-03T04:44:43;4.0;66.8
78793;SHT31;68134;51.984;5.652;2023-04-03T04:47:12;4.0;66.8
78793;SHT31;68134;51.984;5.652;2023-04-03T04:49:42;4.0;66.9
78793;SHT31;68134;51.984;5.652;2023-04-03T04:52:12;4.0;67.1
78793;SHT31;68134;51.984;5.652;2023-04-03T04:54:42;3.9;67.3
78793;SHT31;68134;51.984;5.652;2023-04-03T04:57:11;3.9;67.4
78793;SHT31;68134;51.984;5.652;2023-04-03T04:59:41;3.9;67.3
78793;SHT31;68134;51.984;5.652;2023-04-03T05:02:11;3.9;67.6
78793;SHT31;68134;51.984;5.652;2023-04-03T05:04:41;3.9;67.4
78793;SHT31;68134;51.984;5.652;2023-04-03T05:07:10;3.8;67.4
78793;SHT31;68134;51.984;5.652;2023-04-03T05:09:40;3.8;67.6
78793;SHT31;68134;51.984;5.652;2023-04-03T05:12:10;3.8;67.8
78793;SHT31;68134;51.984;5.652;2023-04-03T05:14:39;3.8;67.6
78793;SHT31;68134;51.984;5.652;2023-04-03T05:17:09;3.7;67.6
78793;SHT31;68134;51.984;5.652;2023-04-03T05:19:39;3.7;67.9
78793;SHT31;68134;51.984;5.652;2023-04-03T05:22:08;3.7;68.0
78793;SHT31;68134;51.984;5.652;2023-04-03T05:24:38;3.7;67.9
78793;SHT31;68134;51.984;5.652;2023-04-03T05:27:10;3.6;68.2
78793;SHT31;68134;51.984;5.652;2023-04-03T05:29:39;3.6;68.1
78793;SHT31;68134;51.984;5.652;2023-04-03T05:32:11;3.6;68.1
78793;SHT31;68134;51.984;5.652;2023-04-03T05:34:41;3.6;68.3
78793;SHT31;68134;51.984;5.652;2023-04-03T05:37:14;3.6;68.3
78793;SHT31;68134;51.984;5.652;2023-04-03T05:39:44;3.6;68.3
78793;SHT31;68134;51.984;5.652;2023-04-03T05:42:13;3.5;68.2
78793;SHT31;68134;51.984;5.652;2023-04-03T05:44:44;3.5;68.1
78793;SHT31;68134;51.984;5.652;2023-04-03T05:47:14;3.5;68.2
78793;SHT31;68134;51.984;5.652;2023-04-03T05:49:44;3.5;68.4
78793;SHT31;68134;51.984;5.652;2023-04-03T05:52:22;3.5;68.6
78793;SHT31;68134;51.984;5.652;2023-04-03T05:54:53;3.5;68.8
78793;SHT31;68134;51.984;5.652;2023-04-03T05:57:23;3.6;68.7
78793;SHT31;68134;51.984;5.652;2023-04-03T05:59:53;3.6;68.6
78793;SHT31;68134;51.984;5.652;2023-04-03T06:02:24;3.7;68.2
78793;SHT31;68134;51.984;5.652;2023-04-03T06:04:54;3.7;67.8
78793;SHT31;68134;51.984;5.652;2023-04-03T06:07:24;3.8;68.0
78793;SHT31;68134;51.984;5.652;2023-04-03T06:09:57;3.8;67.6
78793;SHT31;68134;51.984;5.652;2023-04-03T06:12:27;3.9;67.4
78793;SHT31;68134;51.984;5.652;2023-04-03T06:14:58;4.0;67.1
78793;SHT31;68134;51.984;5.652;2023-04-03T06:17:28;4.0;67.1
78793;SHT31;68134;51.984;5.652;2023-04-03T06:20:01;4.1;66.5
78793;SHT31;68134;51.984;5.652;2023-04-03T06:22:31;4.2;66.2
78793;SHT31;68134;51.984;5.652;2023-04-03T06:25:03;4.2;65.3
78793;SHT31;68134;51.984;5.652;2023-04-03T06:27:33;4.2;65.4
78793;SHT31;68134;51.984;5.652;2023-04-03T06:30:03;4.2;65.1
78793;SHT31;68134;51.984;5.652;2023-04-03T06:32:33;4.2;65.4
78793;SHT31;68134;51.984;5.652;2023-04-03T06:35:03;4.2;65.3
78793;SHT31;68134;51.984;5.652;2023-04-03T06:37:34;4.2;65.6
78793;SHT31;68134;51.984;5.652;2023-04-03T06:40:04;4.2;65.2
78793;SHT31;68134;51.984;5.652;2023-04-03T06:42:37;4.3;65.0
78793;SHT31;68134;51.984;5.652;2023-04-03T06:45:10;4.3;64.4
78793;SHT31;68134;51.984;5.652;2023-04-03T06:47:41;4.3;64.6
78793;SHT31;68134;51.984;5.652;2023-04-03T06:50:11;4.4;64.2
78793;SHT31;68134;51.984;5.652;2023-04-03T06:52:42;4.4;64.4
78793;SHT31;68134;51.984;5.652;2023-04-03T06:55:12;4.5;64.2
78793;SHT31;68134;51.984;5.652;2023-04-03T06:57:42;4.5;63.6
78793;SHT31;68134;51.984;5.652;2023-04-03T07:00:12;4.6;63.5
78793;SHT31;68134;51.984;5.652;2023-04-03T07:02:43;4.6;63.5
78793;SHT31;68134;51.984;5.652;2023-04-03T07:05:14;4.6;62.9
78793;SHT31;68134;51.984;5.652;2023-04-03T07:07:43;4.7;64.2
78793;SHT31;68134;51.984;5.652;2023-04-03T07:10:13;4.7;63.3
78793;SHT31;68134;51.984;5.652;2023-04-03T07:12:43;4.7;63.1
78793;SHT31;68134;51.984;5.652;2023-04-03T07:15:13;4.8;63.0
78793;SHT31;68134;51.984;5.652;2023-04-03T07:17:43;4.8;61.9
78793;SHT31;68134;51.984;5.652;2023-04-03T07:20:13;4.9;61.8
78793;SHT31;68134;51.984;5.652;2023-04-03T07:22:43;4.9;62.4
78793;SHT31;68134;51.984;5.652;2023-04-03T07:25:12;5.0;62.6
78793;SHT31;68134;51.984;5.652;2023-04-03T07:27:42;5.1;61.5
78793;SHT31;68134;51.984;5.652;2023-04-03T07:30:13;5.2;61.1
78793;SHT31;68134;51.984;5.652;2023-04-03T07:32:43;5.4;60.8
78793;SHT31;68134;51.984;5.652;2023-04-03T07:35:13;5.5;58.5
78793;SHT31;68134;51.984;5.652;2023-04-03T07:37:43;5.6;58.7
78793;SHT31;68134;51.984;5.652;2023-04-03T07:40:13;5.7;58.3
78793;SHT31;68134;51.984;5.652;2023-04-03T07:42:43;5.8;57.9
78793;SHT31;68134;51.984;5.652;2023-04-03T07:45:13;5.9;58.2
78793;SHT31;68134;51.984;5.652;2023-04-03T07:47:42;6.1;56.5
78793;SHT31;68134;51.984;5.652;2023-04-03T07:50:12;6.3;55.0
78793;SHT31;68134;51.984;5.652;2023-04-03T07:52:42;6.4;53.8
78793;SHT31;68134;51.984;5.652;2023-04-03T07:55:12;6.5;54.6
78793;SHT31;68134;51.984;5.652;2023-04-03T07:57:44;6.6;53.7
78793;SHT31;68134;51.984;5.652;2023-04-03T08:00:15;6.8;54.4
78793;SHT31;68134;51.984;5.652;2023-04-03T08:02:45;7.0;53.9
78793;SHT31;68134;51.984;5.652;2023-04-03T08:05:21;7.5;51.8
78793;SHT31;68134;51.984;5.652;2023-04-03T08:07:53;8.2;50.2
78793;SHT31;68134;51.984;5.652;2023-04-03T08:10:23;9.0;48.2
78793;SHT31;68134;51.984;5.652;2023-04-03T08:12:53;9.7;46.4
78793;SHT31;68134;51.984;5.652;2023-04-03T08:15:23;10.3;44.2
78793;SHT31;68134;51.984;5.652;2023-04-03T08:17:55;10.8;41.8
78793;SHT31;68134;51.984;5.652;2023-04-03T08:20:25;11.3;39.7
78793;SHT31;68134;51.984;5.652;2023-04-03T08:22:55;11.7;38.9
78793;SHT31;68134;51.984;5.652;2023-04-03T08:25:25;12.0;36.9
78793;SHT31;68134;51.984;5.652;2023-04-03T08:27:57;12.2;34.8
78793;SHT31;68134;51.984;5.652;2023-04-03T08:30:26;12.4;35.1
78793;SHT31;68134;51.984;5.652;2023-04-03T08:32:56;12.7;33.5
78793;SHT31;68134;51.984;5.652;2023-04-03T08:35:26;12.8;33.6
78793;SHT31;68134;51.984;5.652;2023-04-03T08:37:56;13.1;33.3
78793;SHT31;68134;51.984;5.652;2023-04-03T08:40:25;13.3;31.9
78793;SHT31;68134;51.984;5.652;2023-04-03T08:43:08;13.6;30.6
78793;SHT31;68134;51.984;5.652;2023-04-03T08:45:45;13.9;28.5
78793;SHT31;68134;51.984;5.652;2023-04-03T08:48:21;14.1;30.3
78793;SHT31;68134;51.984;5.652;2023-04-03T08:50:58;14.4;29.3
78793;SHT31;68134;51.984;5.652;2023-04-03T08:53:34;14.7;28.7
78793;SHT31;68134;51.984;5.652;2023-04-03T08:56:08;14.9;28.3
78793;SHT31;68134;51.984;5.652;2023-04-03T08:58:44;15.1;28.6
78793;SHT31;68134;51.984;5.652;2023-04-03T09:01:21;15.3;27.8
78793;SHT31;68134;51.984;5.652;2023-04-03T09:03:52;15.6;26.9
78793;SHT31;68134;51.984;5.652;2023-04-03T09:06:26;15.7;25.5
78793;SHT31;68134;51.984;5.652;2023-04-03T09:09:12;15.9;25.9
78793;SHT31;68134;51.984;5.652;2023-04-03T09:11:53;16.2;25.2
78793;SHT31;68134;51.984;5.652;2023-04-03T09:14:33;16.4;23.8
78793;SHT31;68134;51.984;5.652;2023-04-03T09:17:14;16.6;22.8
78793;SHT31;68134;51.984;5.652;2023-04-03T09:19:51;16.8;23.7
78793;SHT31;68134;51.984;5.652;2023-04-03T09:22:27;17.1;22.8
78793;SHT31;68134;51.984;5.652;2023-04-03T09:25:01;17.3;21.7
78793;SHT31;68134;51.984;5.652;2023-04-03T09:27:31;17.6;20.6
78793;SHT31;68134;51.984;5.652;2023-04-03T09:30:01;17.8;19.3
78793;SHT31;68134;51.984;5.652;2023-04-03T09:32:33;18.0;19.4
78793;SHT31;68134;51.984;5.652;2023-04-03T09:35:15;18.1;19.4
78793;SHT31;68134;51.984;5.652;2023-04-03T09:37:48;18.2;18.5
78793;SHT31;68134;51.984;5.652;2023-04-03T09:40:37;18.4;19.6
78793;SHT31;68134;51.984;5.652;2023-04-03T09:43:25;18.5;17.9
78793;SHT31;68134;51.984;5.652;2023-04-03T09:46:15;18.7;18.8
78793;SHT31;68134;51.984;5.652;2023-04-03T09:48:31;18.7;17.8
78793;SHT31;68134;51.984;5.652;2023-04-03T09:51:01;18.8;18.3
78793;SHT31;68134;51.984;5.652;2023-04-03T09:53:37;18.8;17.1
78793;SHT31;68134;51.984;5.652;2023-04-03T09:56:22;18.8;17.5
78793;SHT31;68134;51.984;5.652;2023-04-03T09:59:12;18.9;18.4
78793;SHT31;68134;51.984;5.652;2023-04-03T10:01:58;18.9;18.4
78793;SHT31;68134;51.984;5.652;2023-04-03T10:04:39;19.0;16.9
78793;SHT31;68134;51.984;5.652;2023-04-03T10:08:14;19.1;17.3
78793;SHT31;68134;51.984;5.652;2023-04-03T10:10:47;19.1;18.3
78793;SHT31;68134;51.984;5.652;2023-04-03T10:13:20;19.1;18.9
78793;SHT31;68134;51.984;5.652;2023-04-03T10:15:51;19.2;17.8
78793;SHT31;68134;51.984;5.652;2023-04-03T10:18:40;19.4;19.1
78793;SHT31;68134;51.984;5.652;2023-04-03T10:21:17;19.7;18.1
78793;SHT31;68134;51.984;5.652;2023-04-03T10:23:53;19.9;17.6
78793;SHT31;68134;51.984;5.652;2023-04-03T10:26:35;19.9;16.6
78793;SHT31;68134;51.984;5.652;2023-04-03T10:29:19;20.0;16.4
78793;SHT31;68134;51.984;5.652;2023-04-03T10:32:01;20.1;16.8
78793;SHT31;68134;51.984;5.652;2023-04-03T10:34:38;20.1;16.3
78793;SHT31;68134;51.984;5.652;2023-04-03T10:37:21;20.2;16.3
78793;SHT31;68134;51.984;5.652;2023-04-03T10:39:57;20.1;16.5
78793;SHT31;68134;51.984;5.652;2023-04-03T10:42:35;20.1;17.2
78793;SHT31;68134;51.984;5.652;2023-04-03T10:45:21;20.2;17.6
78793;SHT31;68134;51.984;5.652;2023-04-03T10:48:02;20.3;17.4
78793;SHT31;68134;51.984;5.652;2023-04-03T10:50:46;20.3;18.0
78793;SHT31;68134;51.984;5.652;2023-04-03T10:53:29;20.3;17.5
78793;SHT31;68134;51.984;5.652;2023-04-03T10:56:12;20.3;17.0
78793;SHT31;68134;51.984;5.652;2023-04-03T10:58:45;20.3;17.9
78793;SHT31;68134;51.984;5.652;2023-04-03T11:01:21;20.2;18.2
78793;SHT31;68134;51.984;5.652;2023-04-03T11:03:54;20.2;18.6
78793;SHT31;68134;51.984;5.652;2023-04-03T11:06:34;20.3;19.5
78793;SHT31;68134;51.984;5.652;2023-04-03T11:09:18;20.5;17.6
78793;SHT31;68134;51.984;5.652;2023-04-03T11:11:53;20.6;17.9
78793;SHT31;68134;51.984;5.652;2023-04-03T11:14:28;20.6;17.8
78793;SHT31;68134;51.984;5.652;2023-04-03T11:17:06;20.7;18.9
78793;SHT31;68134;51.984;5.652;2023-04-03T11:19:44;20.8;18.3
78793;SHT31;68134;51.984;5.652;2023-04-03T11:22:25;20.9;20.0
78793;SHT31;68134;51.984;5.652;2023-04-03T11:25:03;21.1;18.9
78793;SHT31;68134;51.984;5.652;2023-04-03T11:27:43;21.2;18.0
78793;SHT31;68134;51.984;5.652;2023-04-03T11:30:20;21.2;17.8
78793;SHT31;68134;51.984;5.652;2023-04-03T11:33:12;21.3;18.1
78793;SHT31;68134;51.984;5.652;2023-04-03T11:35:48;21.4;18.7
78793;SHT31;68134;51.984;5.652;2023-04-03T11:38:25;21.5;17.4
78793;SHT31;68134;51.984;5.652;2023-04-03T11:40:58;21.6;18.2
78793;SHT31;68134;51.984;5.652;2023-04-03T11:43:29;21.7;18.8
78793;SHT31;68134;51.984;5.652;2023-04-03T11:46:01;21.9;17.9
78793;SHT31;68134;51.984;5.652;2023-04-03T11:48:47;22.0;17.3
78793;SHT31;68134;51.984;5.652;2023-04-03T11:51:42;22.1;17.5
78793;SHT31;68134;51.984;5.652;2023-04-03T11:54:47;22.2;16.9
78793;SHT31;68134;51.984;5.652;2023-04-03T11:57:50;22.2;17.0
78793;SHT31;68134;51.984;5.652;2023-04-03T12:00:50;22.2;16.3
78793;SHT31;68134;51.984;5.652;2023-04-03T12:03:31;22.2;16.9
78793;SHT31;68134;51.984;5.652;2023-04-03T12:06:47;22.3;16.4
78793;SHT31;68134;51.984;5.652;2023-04-03T12:09:26;22.3;16.6
78793;SHT31;68134;51.984;5.652;2023-04-03T12:12:00;22.3;17.3
78793;SHT31;68134;51.984;5.652;2023-04-03T12:14:31;22.3;17.3
78793;SHT31;68134;51.984;5.652;2023-04-03T12:17:01;22.4;16.9
78793;SHT31;68134;51.984;5.652;2023-04-03T12:19:36;22.4;16.6
78793;SHT31;68134;51.984;5.652;2023-04-03T12:22:13;22.5;17.1
78793;SHT31;68134;51.984;5.652;2023-04-03T12:24:45;22.6;17.2
78793;SHT31;68134;51.984;5.652;2023-04-03T12:27:23;22.7;15.9
78793;SHT31;68134;51.984;5.652;2023-04-03T12:29:58;22.8;16.2
78793;SHT31;68134;51.984;5.652;2023-04-03T12:32:43;22.8;16.1
78793;SHT31;68134;51.984;5.652;2023-04-03T12:35:20;22.7;16.9
78793;SHT31;68134;51.984;5.652;2023-04-03T12:38:20;22.7;17.8
78793;SHT31;68134;51.984;5.652;2023-04-03T12:40:59;22.6;16.5
78793;SHT31;68134;51.984;5.652;2023-04-03T12:43:46;22.6;17.3
78793;SHT31;68134;51.984;5.652;2023-04-03T12:46:19;22.5;17.1
78793;SHT31;68134;51.984;5.652;2023-04-03T12:48:52;22.5;17.0
78793;SHT31;68134;51.984;5.652;2023-04-03T12:51:31;22.5;17.1
78793;SHT31;68134;51.984;5.652;2023-04-03T12:54:15;22.5;17.4
78793;SHT31;68134;51.984;5.652;2023-04-03T12:56:45;22.6;17.9
78793;SHT31;68134;51.984;5.652;2023-04-03T12:59:20;22.6;17.7
78793;SHT31;68134;51.984;5.652;2023-04-03T13:01:58;22.6;17.1
78793;SHT31;68134;51.984;5.652;2023-04-03T13:04:31;22.6;17.0
78793;SHT31;68134;51.984;5.652;2023-04-03T13:07:01;22.6;17.3
78793;SHT31;68134;51.984;5.652;2023-04-03T13:09:31;22.6;17.1
78793;SHT31;68134;51.984;5.652;2023-04-03T13:12:03;22.6;17.4
78793;SHT31;68134;51.984;5.652;2023-04-03T13:14:39;22.5;17.0
78793;SHT31;68134;51.984;5.652;2023-04-03T13:17:14;22.5;16.6
78793;SHT31;68134;51.984;5.652;2023-04-03T13:19:45;22.5;17.1
78793;SHT31;68134;51.984;5.652;2023-04-03T13:22:26;22.4;16.2
78793;SHT31;68134;51.984;5.652;2023-04-03T13:24:59;22.4;15.9
78793;SHT31;68134;51.984;5.652;2023-04-03T13:27:32;22.2;17.8
78793;SHT31;68134;51.984;5.652;2023-04-03T13:30:03;22.2;17.3
78793;SHT31;68134;51.984;5.652;2023-04-03T13:32:34;22.1;16.7
78793;SHT31;68134;51.984;5.652;2023-04-03T13:35:24;22.1;17.4
78793;SHT31;68134;51.984;5.652;2023-04-03T13:37:57;22.1;17.4
78793;SHT31;68134;51.984;5.652;2023-04-03T13:40:27;22.1;17.2
78793;SHT31;68134;51.984;5.652;2023-04-03T13:43:03;22.2;17.3
78793;SHT31;68134;51.984;5.652;2023-04-03T13:45:34;22.2;16.9
78793;SHT31;68134;51.984;5.652;2023-04-03T13:48:16;22.2;16.9
78793;SHT31;68134;51.984;5.652;2023-04-03T13:50:56;22.2;17.3
78793;SHT31;68134;51.984;5.652;2023-04-03T13:53:29;22.1;18.2
78793;SHT31;68134;51.984;5.652;2023-04-03T13:56:05;22.1;17.1
78793;SHT31;68134;51.984;5.652;2023-04-03T13:58:36;22.0;18.9
78793;SHT31;68134;51.984;5.652;2023-04-03T14:01:19;22.0;18.4
78793;SHT31;68134;51.984;5.652;2023-04-03T14:03:53;22.0;17.4
78793;SHT31;68134;51.984;5.652;2023-04-03T14:06:24;22.0;17.8
78793;SHT31;68134;51.984;5.652;2023-04-03T14:08:56;21.9;18.5
78793;SHT31;68134;51.984;5.652;2023-04-03T14:11:29;21.9;18.0
78793;SHT31;68134;51.984;5.652;2023-04-03T14:14:02;21.8;18.2
78793;SHT31;68134;51.984;5.652;2023-04-03T14:16:38;21.7;17.7
78793;SHT31;68134;51.984;5.652;2023-04-03T14:19:19;21.7;18.3
78793;SHT31;68134;51.984;5.652;2023-04-03T14:21:50;21.6;18.2
78793;SHT31;68134;51.984;5.652;2023-04-03T14:24:21;21.5;19.4
78793;SHT31;68134;51.984;5.652;2023-04-03T14:26:53;21.4;19.4
78793;SHT31;68134;51.984;5.652;2023-04-03T14:29:24;21.2;20.4
78793;SHT31;68134;51.984;5.652;2023-04-03T14:31:53;21.1;20.0
78793;SHT31;68134;51.984;5.652;2023-04-03T14:34:23;21.0;18.4
78793;SHT31;68134;51.984;5.652;2023-04-03T14:36:53;20.6;19.4
78793;SHT31;68134;51.984;5.652;2023-04-03T14:39:22;19.9;20.0
78793;SHT31;68134;51.984;5.652;2023-04-03T14:41:52;19.5;20.8
78793;SHT31;68134;51.984;5.652;2023-04-03T14:44:22;19.2;21.4
78793;SHT31;68134;51.984;5.652;2023-04-03T14:46:52;19.0;21.4
78793;SHT31;68134;51.984;5.652;2023-04-03T14:49:26;18.9;21.7
78793;SHT31;68134;51.984;5.652;2023-04-03T14:51:57;18.7;22.3
78793;SHT31;68134;51.984;5.652;2023-04-03T14:54:27;18.5;22.1
78793;SHT31;68134;51.984;5.652;2023-04-03T14:56:59;18.4;23.1
78793;SHT31;68134;51.984;5.652;2023-04-03T14:59:31;18.2;23.2
78793;SHT31;68134;51.984;5.652;2023-04-03T15:02:01;18.1;23.4
78793;SHT31;68134;51.984;5.652;2023-04-03T15:04:34;18.0;22.8
78793;SHT31;68134;51.984;5.652;2023-04-03T15:07:04;17.8;22.6
78793;SHT31;68134;51.984;5.652;2023-04-03T15:09:35;17.6;24.4
78793;SHT31;68134;51.984;5.652;2023-04-03T15:12:08;17.4;24.2
78793;SHT31;68134;51.984;5.652;2023-04-03T15:14:38;17.2;24.6
78793;SHT31;68134;51.984;5.652;2023-04-03T15:17:16;17.1;24.2
78793;SHT31;68134;51.984;5.652;2023-04-03T15:19:47;16.9;23.8
78793;SHT31;68134;51.984;5.652;2023-04-03T15:22:19;16.8;25.1
78793;SHT31;68134;51.984;5.652;2023-04-03T15:24:49;16.7;26.1
78793;SHT31;68134;51.984;5.652;2023-04-03T15:27:21;16.6;25.1
78793;SHT31;68134;51.984;5.652;2023-04-03T15:29:51;16.6;26.1
78793;SHT31;68134;51.984;5.652;2023-04-03T15:32:21;16.5;25.4
78793;SHT31;68134;51.984;5.652;2023-04-03T15:34:50;16.4;25.5
78793;SHT31;68134;51.984;5.652;2023-04-03T15:37:20;16.4;26.4
78793;SHT31;68134;51.984;5.652;2023-04-03T15:39:50;16.3;26.3
78793;SHT31;68134;51.984;5.652;2023-04-03T15:42:19;16.3;26.7
78793;SHT31;68134;51.984;5.652;2023-04-03T15:44:49;16.2;26.3
78793;SHT31;68134;51.984;5.652;2023-04-03T15:47:19;16.2;26.4
78793;SHT31;68134;51.984;5.652;2023-04-03T15:49:51;16.2;26.6
78793;SHT31;68134;51.984;5.652;2023-04-03T15:52:21;16.1;26.9
78793;SHT31;68134;51.984;5.652;2023-04-03T15:54:51;16.0;26.4
78793;SHT31;68134;51.984;5.652;2023-04-03T15:57:20;16.0;26.3
78793;SHT31;68134;51.984;5.652;2023-04-03T15:59:53;15.9;26.5
78793;SHT31;68134;51.984;5.652;2023-04-03T16:02:24;15.9;26.5
78793;SHT31;68134;51.984;5.652;2023-04-03T16:04:55;15.8;26.9
78793;SHT31;68134;51.984;5.652;2023-04-03T16:07:25;15.7;27.1
78793;SHT31;68134;51.984;5.652;2023-04-03T16:09:55;15.7;27.8
78793;SHT31;68134;51.984;5.652;2023-04-03T16:12:24;15.6;27.8
78793;SHT31;68134;51.984;5.652;2023-04-03T16:14:54;15.5;27.8
78793;SHT31;68134;51.984;5.652;2023-04-03T16:17:26;15.4;27.7
78793;SHT31;68134;51.984;5.652;2023-04-03T16:19:55;15.4;27.7
78793;SHT31;68134;51.984;5.652;2023-04-03T16:22:27;15.3;27.6
78793;SHT31;68134;51.984;5.652;2023-04-03T16:24:57;15.2;27.6
78793;SHT31;68134;51.984;5.652;2023-04-03T16:27:27;15.2;27.0
78793;SHT31;68134;51.984;5.652;2023-04-03T16:29:58;15.1;27.5
78793;SHT31;68134;51.984;5.652;2023-04-03T16:32:30;15.0;27.5
78793;SHT31;68134;51.984;5.652;2023-04-03T16:35:00;14.9;28.7
78793;SHT31;68134;51.984;5.652;2023-04-03T16:37:30;14.8;28.8
78793;SHT31;68134;51.984;5.652;2023-04-03T16:40:00;14.7;28.5
78793;SHT31;68134;51.984;5.652;2023-04-03T16:42:30;14.7;28.5
78793;SHT31;68134;51.984;5.652;2023-04-03T16:45:00;14.6;28.2
78793;SHT31;68134;51.984;5.652;2023-04-03T16:47:33;14.5;28.3
78793;SHT31;68134;51.984;5.652;2023-04-03T16:50:03;14.4;29.0